createdAt,value
2018-05-13T00:00:02.919Z,11.65
2018-05-13T00:01:03.013Z,11.64
2018-05-13T00:02:02.904Z,11.60
2018-05-13T00:03:03.024Z,11.60
2018-05-13T00:04:02.992Z,11.62
2018-05-13T00:05:03.011Z,11.62
2018-05-13T00:06:02.928Z,11.58
2018-05-13T00:07:02.970Z,11.54
2018-05-13T00:08:02.996Z,11.50
2018-05-13T00:09:03.023Z,11.45
2018-05-13T00:10:02.916Z,11.42
2018-05-13T00:11:03.028Z,11.38
2018-05-13T00:12:02.931Z,11.36
2018-05-13T00:13:02.909Z,11.32
2018-05-13T00:14:02.983Z,11.28
2018-05-13T00:15:03.054Z,11.28
2018-05-13T00:16:02.921Z,11.28
2018-05-13T00:17:03.016Z,11.27
2018-05-13T00:18:02.920Z,11.25
2018-05-13T00:19:02.971Z,11.25
2018-05-13T00:20:03.059Z,11.24
2018-05-13T00:21:02.930Z,11.25
2018-05-13T00:22:03.023Z,11.24
2018-05-13T00:23:03.007Z,11.24
2018-05-13T00:24:02.963Z,11.21
2018-05-13T00:25:02.934Z,11.18
2018-05-13T00:26:02.931Z,11.18
2018-05-13T00:27:02.940Z,11.28
2018-05-13T00:28:02.937Z,11.32
2018-05-13T00:29:02.937Z,11.32
2018-05-13T00:30:03.010Z,11.32
2018-05-13T00:31:02.998Z,11.27
2018-05-13T00:32:03.003Z,11.24
2018-05-13T00:33:03.068Z,11.21
2018-05-13T00:34:03.033Z,11.18
2018-05-13T00:35:02.927Z,11.16
2018-05-13T00:36:02.968Z,11.14
2018-05-13T00:37:02.969Z,11.11
2018-05-13T00:38:03.011Z,11.11
2018-05-13T00:39:03.023Z,11.10
2018-05-13T00:40:03.012Z,11.13
2018-05-13T00:41:02.944Z,11.10
2018-05-13T00:42:02.944Z,11.11
2018-05-13T00:43:02.944Z,11.10
2018-05-13T00:44:02.944Z,11.06
2018-05-13T00:45:02.963Z,11.02
2018-05-13T00:46:03.024Z,11.00
2018-05-13T00:47:02.905Z,11.06
2018-05-13T00:48:03.020Z,11.06
2018-05-13T00:49:02.947Z,11.05
2018-05-13T00:50:02.949Z,11.02
2018-05-13T00:51:02.984Z,10.95
2018-05-13T00:52:02.980Z,10.91
2018-05-13T00:53:03.023Z,10.90
2018-05-13T00:54:03.044Z,10.87
2018-05-13T00:55:02.986Z,10.84
2018-05-13T00:56:03.020Z,10.81
2018-05-13T00:57:03.049Z,10.79
2018-05-13T00:58:02.938Z,10.80
2018-05-13T00:59:03.048Z,10.81
2018-05-13T01:00:02.930Z,10.77
2018-05-13T01:01:03.049Z,10.80
2018-05-13T01:02:02.963Z,10.81
2018-05-13T01:03:03.088Z,10.80
2018-05-13T01:04:03.053Z,10.79
2018-05-13T01:05:03.024Z,10.74
2018-05-13T01:06:02.996Z,10.69
2018-05-13T01:07:03.059Z,10.67
2018-05-13T01:08:02.956Z,10.61
2018-05-13T01:09:03.029Z,10.60
2018-05-13T01:10:03.074Z,10.65
2018-05-13T01:11:03.015Z,10.69
2018-05-13T01:12:02.901Z,10.65
2018-05-13T01:13:02.935Z,10.63
2018-05-13T01:14:02.923Z,10.58
2018-05-13T01:15:02.993Z,10.56
2018-05-13T01:16:02.925Z,10.58
2018-05-13T01:17:03.027Z,10.56
2018-05-13T01:18:02.979Z,10.52
2018-05-13T01:19:02.905Z,10.47
2018-05-13T01:20:03.023Z,10.43
2018-05-13T01:21:03.011Z,10.41
2018-05-13T01:22:02.975Z,10.41
2018-05-13T01:23:02.977Z,10.36
2018-05-13T01:24:02.967Z,10.35
2018-05-13T01:25:03.079Z,10.36
2018-05-13T01:26:03.101Z,10.38
2018-05-13T01:27:03.022Z,10.38
2018-05-13T01:28:03.040Z,10.36
2018-05-13T01:29:02.981Z,10.35
2018-05-13T01:30:03.071Z,10.34
2018-05-13T01:31:02.938Z,10.32
2018-05-13T01:32:02.978Z,10.30
2018-05-13T01:33:02.978Z,10.30
2018-05-13T01:34:03.055Z,10.30
2018-05-13T01:35:02.979Z,10.27
2018-05-13T01:36:03.051Z,10.25
2018-05-13T01:37:02.999Z,10.25
2018-05-13T01:38:02.994Z,10.30
2018-05-13T01:39:03.057Z,10.31
2018-05-13T01:40:02.985Z,10.28
2018-05-13T01:41:03.035Z,10.24
2018-05-13T01:42:03.049Z,10.21
2018-05-13T01:43:02.972Z,10.20
2018-05-13T01:44:03.081Z,10.28
2018-05-13T01:45:02.997Z,10.25
2018-05-13T01:46:03.000Z,10.24
2018-05-13T01:47:03.032Z,10.21
2018-05-13T01:48:03.015Z,10.28
2018-05-13T01:49:03.094Z,10.36
2018-05-13T01:50:02.977Z,10.41
2018-05-13T01:51:03.068Z,10.39
2018-05-13T01:52:03.038Z,10.36
2018-05-13T01:53:03.099Z,10.35
2018-05-13T01:54:02.975Z,10.32
2018-05-13T01:55:03.059Z,10.34
2018-05-13T01:56:03.059Z,10.32
2018-05-13T01:57:03.087Z,10.30
2018-05-13T01:58:03.028Z,10.24
2018-05-13T01:59:02.993Z,10.23
2018-05-13T02:00:03.125Z,10.18
2018-05-13T02:01:03.023Z,10.20
2018-05-13T02:02:03.091Z,10.17
2018-05-13T02:03:03.086Z,10.14
2018-05-13T02:04:03.040Z,10.16
2018-05-13T02:05:03.070Z,10.17
2018-05-13T02:06:03.063Z,10.16
2018-05-13T02:07:02.986Z,10.16
2018-05-13T02:08:03.129Z,10.14
2018-05-13T02:09:03.079Z,10.13
2018-05-13T02:10:03.025Z,10.09
2018-05-13T02:11:03.063Z,10.08
2018-05-13T02:12:02.992Z,10.06
2018-05-13T02:13:03.070Z,10.04
2018-05-13T02:14:02.993Z,10.02
2018-05-13T02:15:02.998Z,10.06
2018-05-13T02:16:03.066Z,10.14
2018-05-13T02:17:02.993Z,10.13
2018-05-13T02:18:02.998Z,10.11
2018-05-13T02:19:03.068Z,10.08
2018-05-13T02:20:03.012Z,10.06
2018-05-13T02:21:03.078Z,10.02
2018-05-13T02:22:03.091Z,10.02
2018-05-13T02:23:03.010Z,10.01
2018-05-13T02:24:03.014Z,9.98
2018-05-13T02:25:03.008Z,9.95
2018-05-13T02:26:03.013Z,9.93
2018-05-13T02:27:03.084Z,9.89
2018-05-13T02:28:03.014Z,9.90
2018-05-13T02:29:03.012Z,9.91
2018-05-13T02:30:03.015Z,9.94
2018-05-13T02:31:03.080Z,9.94
2018-05-13T02:32:03.060Z,9.93
2018-05-13T02:33:03.144Z,9.93
2018-05-13T02:34:03.050Z,10.01
2018-05-13T02:35:03.049Z,10.05
2018-05-13T02:36:03.050Z,10.06
2018-05-13T02:37:03.088Z,10.05
2018-05-13T02:38:03.012Z,10.05
2018-05-13T02:39:03.102Z,10.04
2018-05-13T02:40:03.087Z,10.01
2018-05-13T02:41:03.029Z,10.01
2018-05-13T02:42:03.099Z,10.05
2018-05-13T02:43:03.099Z,10.08
2018-05-13T02:44:03.128Z,10.06
2018-05-13T02:45:03.097Z,10.14
2018-05-13T02:46:03.011Z,10.17
2018-05-13T02:47:03.133Z,10.16
2018-05-13T02:48:03.015Z,10.16
2018-05-13T02:49:03.095Z,10.17
2018-05-13T02:50:03.066Z,10.17
2018-05-13T02:51:03.027Z,10.16
2018-05-13T02:52:03.027Z,10.13
2018-05-13T02:53:03.104Z,10.08
2018-05-13T02:54:03.029Z,10.05
2018-05-13T02:55:03.029Z,10.01
2018-05-13T02:56:03.034Z,9.97
2018-05-13T02:57:02.997Z,9.95
2018-05-13T02:58:03.107Z,9.94
2018-05-13T02:59:03.104Z,9.89
2018-05-13T03:00:03.036Z,9.86
2018-05-13T03:01:03.110Z,9.83
2018-05-13T03:02:03.039Z,9.79
2018-05-13T03:03:03.034Z,9.76
2018-05-13T03:04:03.113Z,9.75
2018-05-13T03:05:03.113Z,9.84
2018-05-13T03:06:03.038Z,9.89
2018-05-13T03:07:03.036Z,9.86
2018-05-13T03:08:03.048Z,9.86
2018-05-13T03:09:03.043Z,9.86
2018-05-13T03:10:03.073Z,9.84
2018-05-13T03:11:03.043Z,9.82
2018-05-13T03:12:03.043Z,9.78
2018-05-13T03:13:03.043Z,9.75
2018-05-13T03:14:03.118Z,9.75
2018-05-13T03:15:03.043Z,9.73
2018-05-13T03:16:03.117Z,9.72
2018-05-13T03:17:03.043Z,9.71
2018-05-13T03:18:03.086Z,9.69
2018-05-13T03:19:03.112Z,9.69
2018-05-13T03:20:03.046Z,9.72
2018-05-13T03:21:02.915Z,9.72
2018-05-13T03:22:03.163Z,9.69
2018-05-13T03:23:03.080Z,9.71
2018-05-13T03:24:03.142Z,9.72
2018-05-13T03:25:03.116Z,9.71
2018-05-13T03:26:03.023Z,9.69
2018-05-13T03:27:03.056Z,9.68
2018-05-13T03:28:03.177Z,9.66
2018-05-13T03:29:03.183Z,9.64
2018-05-13T03:30:03.132Z,9.64
2018-05-13T03:31:03.148Z,9.61
2018-05-13T03:32:03.055Z,9.66
2018-05-13T03:33:03.089Z,9.68
2018-05-13T03:34:03.081Z,9.69
2018-05-13T03:35:03.127Z,9.69
2018-05-13T03:36:03.130Z,9.71
2018-05-13T03:37:03.129Z,9.69
2018-05-13T03:38:03.130Z,9.69
2018-05-13T03:39:03.135Z,9.71
2018-05-13T03:40:03.059Z,9.71
2018-05-13T03:41:03.059Z,9.73
2018-05-13T03:42:03.083Z,9.76
2018-05-13T03:43:03.134Z,9.79
2018-05-13T03:44:03.130Z,9.78
2018-05-13T03:45:03.071Z,9.78
2018-05-13T03:46:03.144Z,9.79
2018-05-13T03:47:03.093Z,9.80
2018-05-13T03:48:03.082Z,9.79
2018-05-13T03:49:03.133Z,9.78
2018-05-13T03:50:03.061Z,9.79
2018-05-13T03:51:03.133Z,9.80
2018-05-13T03:52:03.056Z,9.82
2018-05-13T03:53:03.161Z,9.82
2018-05-13T03:54:03.115Z,9.82
2018-05-13T03:55:03.073Z,9.82
2018-05-13T03:56:03.138Z,9.82
2018-05-13T03:57:03.054Z,9.83
2018-05-13T03:58:03.172Z,9.83
2018-05-13T03:59:03.159Z,9.83
2018-05-13T04:00:03.141Z,9.84
2018-05-13T04:01:03.113Z,9.86
2018-05-13T04:02:03.176Z,9.95
2018-05-13T04:03:03.115Z,10.00
2018-05-13T04:04:03.097Z,10.00
2018-05-13T04:05:03.117Z,10.00
2018-05-13T04:06:03.142Z,10.00
2018-05-13T04:07:03.066Z,10.00
2018-05-13T04:08:03.063Z,10.00
2018-05-13T04:09:03.068Z,10.01
2018-05-13T04:10:03.103Z,10.00
2018-05-13T04:11:03.119Z,10.04
2018-05-13T04:12:03.080Z,10.05
2018-05-13T04:13:03.079Z,10.08
2018-05-13T04:14:03.109Z,10.06
2018-05-13T04:15:03.079Z,10.09
2018-05-13T04:16:03.086Z,10.13
2018-05-13T04:17:03.088Z,10.14
2018-05-13T04:18:03.154Z,10.16
2018-05-13T04:19:03.086Z,10.17
2018-05-13T04:20:03.148Z,10.17
2018-05-13T04:21:03.089Z,10.18
2018-05-13T04:22:03.084Z,10.21
2018-05-13T04:23:03.154Z,10.27
2018-05-13T04:24:03.090Z,10.38
2018-05-13T04:25:03.160Z,10.43
2018-05-13T04:26:03.159Z,10.45
2018-05-13T04:27:03.052Z,10.47
2018-05-13T04:28:03.088Z,10.46
2018-05-13T04:29:03.093Z,10.47
2018-05-13T04:30:03.169Z,10.46
2018-05-13T04:31:03.098Z,10.46
2018-05-13T04:32:03.078Z,10.46
2018-05-13T04:33:03.158Z,10.45
2018-05-13T04:34:03.195Z,10.43
2018-05-13T04:35:03.071Z,10.45
2018-05-13T04:36:03.082Z,10.43
2018-05-13T04:37:03.115Z,10.43
2018-05-13T04:38:03.201Z,10.42
2018-05-13T04:39:03.135Z,10.41
2018-05-13T04:40:03.182Z,10.39
2018-05-13T04:41:03.167Z,10.39
2018-05-13T04:42:03.164Z,10.39
2018-05-13T04:43:03.189Z,10.39
2018-05-13T04:44:03.164Z,10.43
2018-05-13T04:45:03.190Z,10.46
2018-05-13T04:46:03.143Z,10.47
2018-05-13T04:47:03.207Z,10.50
2018-05-13T04:48:03.070Z,10.54
2018-05-13T04:49:03.113Z,10.57
2018-05-13T04:50:03.238Z,10.60
2018-05-13T04:51:03.136Z,10.61
2018-05-13T04:52:03.105Z,10.63
2018-05-13T04:53:03.173Z,10.64
2018-05-13T04:54:03.143Z,10.69
2018-05-13T04:55:03.107Z,10.74
2018-05-13T04:56:03.110Z,10.75
2018-05-13T04:57:03.112Z,10.80
2018-05-13T04:58:03.175Z,10.81
2018-05-13T04:59:03.179Z,10.86
2018-05-13T05:00:03.110Z,10.87
2018-05-13T05:01:03.120Z,10.91
2018-05-13T05:02:03.093Z,10.95
2018-05-13T05:03:03.197Z,10.98
2018-05-13T05:04:03.237Z,10.98
2018-05-13T05:05:03.221Z,11.02
2018-05-13T05:06:03.082Z,11.03
2018-05-13T05:07:03.154Z,11.06
2018-05-13T05:08:03.156Z,11.07
2018-05-13T05:09:03.177Z,11.14
2018-05-13T05:10:03.195Z,11.16
2018-05-13T05:11:03.193Z,11.18
2018-05-13T05:12:03.155Z,11.20
2018-05-13T05:13:03.144Z,11.21
2018-05-13T05:14:03.160Z,11.22
2018-05-13T05:15:03.155Z,11.24
2018-05-13T05:16:03.191Z,11.22
2018-05-13T05:17:03.215Z,11.28
2018-05-13T05:18:03.224Z,11.38
2018-05-13T05:19:03.170Z,11.43
2018-05-13T05:20:03.142Z,11.46
2018-05-13T05:21:03.211Z,11.47
2018-05-13T05:22:03.120Z,11.50
2018-05-13T05:23:03.196Z,11.51
2018-05-13T05:24:03.128Z,11.53
2018-05-13T05:25:03.204Z,11.54
2018-05-13T05:26:03.193Z,11.56
2018-05-13T05:27:03.127Z,11.58
2018-05-13T05:28:03.133Z,11.60
2018-05-13T05:29:03.131Z,11.65
2018-05-13T05:30:03.205Z,11.69
2018-05-13T05:31:03.131Z,11.75
2018-05-13T05:32:03.101Z,11.82
2018-05-13T05:33:03.184Z,11.89
2018-05-13T05:34:03.134Z,11.98
2018-05-13T05:35:03.099Z,12.06
2018-05-13T05:36:03.140Z,12.16
2018-05-13T05:37:03.105Z,12.24
2018-05-13T05:38:03.105Z,12.32
2018-05-13T05:39:03.181Z,12.39
2018-05-13T05:40:03.127Z,12.44
2018-05-13T05:41:03.090Z,12.48
2018-05-13T05:42:03.206Z,12.54
2018-05-13T05:43:03.240Z,12.61
2018-05-13T05:44:03.162Z,12.64
2018-05-13T05:45:03.237Z,12.68
2018-05-13T05:46:03.146Z,12.76
2018-05-13T05:47:03.146Z,12.83
2018-05-13T05:48:03.184Z,12.84
2018-05-13T05:49:03.180Z,12.86
2018-05-13T05:50:03.243Z,12.94
2018-05-13T05:51:03.112Z,13.03
2018-05-13T05:52:03.215Z,13.05
2018-05-13T05:53:03.159Z,13.12
2018-05-13T05:54:03.150Z,13.17
2018-05-13T05:56:03.217Z,13.36
2018-05-13T05:57:03.145Z,13.45
2018-05-13T05:58:03.151Z,13.54
2018-05-13T05:59:03.216Z,13.72
2018-05-13T06:00:03.216Z,13.83
2018-05-13T06:01:03.220Z,13.93
2018-05-13T06:02:03.172Z,13.96
2018-05-13T06:03:03.240Z,14.00
2018-05-13T06:04:03.193Z,14.03
2018-05-13T06:05:03.120Z,14.04
2018-05-13T06:06:03.189Z,14.17
2018-05-13T06:07:03.193Z,14.35
2018-05-13T06:08:03.238Z,14.55
2018-05-13T06:09:03.246Z,14.64
2018-05-13T06:10:03.140Z,14.71
2018-05-13T06:11:03.246Z,14.80
2018-05-13T06:12:03.141Z,14.86
2018-05-13T06:13:03.223Z,14.98
2018-05-13T06:14:03.181Z,15.14
2018-05-13T06:15:03.192Z,15.32
2018-05-13T06:16:03.263Z,15.44
2018-05-13T06:17:03.194Z,15.47
2018-05-13T06:18:03.288Z,15.47
2018-05-13T06:19:03.205Z,15.54
2018-05-13T06:20:03.232Z,15.62
2018-05-13T06:21:03.226Z,15.70
2018-05-13T06:22:03.163Z,15.77
2018-05-13T06:23:03.161Z,15.87
2018-05-13T06:24:03.164Z,15.93
2018-05-13T06:25:03.170Z,16.02
2018-05-13T06:26:03.232Z,16.07
2018-05-13T06:27:03.174Z,16.10
2018-05-13T06:28:03.165Z,16.11
2018-05-13T06:29:03.238Z,16.16
2018-05-13T06:30:03.164Z,16.28
2018-05-13T06:31:03.169Z,16.33
2018-05-13T06:32:03.157Z,16.36
2018-05-13T06:33:03.264Z,16.44
2018-05-13T06:34:03.213Z,16.44
2018-05-13T06:35:03.145Z,16.48
2018-05-13T06:36:03.262Z,16.57
2018-05-13T06:37:03.176Z,16.66
2018-05-13T06:38:03.204Z,16.70
2018-05-13T06:39:03.167Z,16.80
2018-05-13T06:40:03.146Z,16.81
2018-05-13T06:41:03.269Z,16.81
2018-05-13T06:42:03.206Z,16.80
2018-05-13T06:43:03.216Z,16.79
2018-05-13T06:44:03.286Z,16.85
2018-05-13T06:45:03.204Z,16.90
2018-05-13T06:46:03.183Z,16.83
2018-05-13T06:47:03.220Z,16.91
2018-05-13T06:48:03.246Z,17.02
2018-05-13T06:49:03.246Z,17.14
2018-05-13T06:50:03.208Z,17.24
2018-05-13T06:51:03.372Z,17.36
2018-05-13T06:52:03.246Z,17.49
2018-05-13T06:53:03.247Z,17.57
2018-05-13T06:54:03.173Z,17.73
2018-05-13T06:55:03.255Z,17.92
2018-05-13T06:56:03.208Z,18.14
2018-05-13T06:57:03.247Z,18.25
2018-05-13T06:58:03.254Z,18.44
2018-05-13T06:59:03.221Z,18.62
2018-05-13T07:00:03.215Z,18.80
2018-05-13T07:01:03.162Z,18.92
2018-05-13T07:02:03.182Z,19.17
2018-05-13T07:03:03.162Z,19.44
2018-05-13T07:04:03.249Z,19.60
2018-05-13T07:05:03.269Z,19.76
2018-05-13T07:06:03.250Z,19.92
2018-05-13T07:07:03.178Z,20.12
2018-05-13T07:08:03.180Z,20.25
2018-05-13T07:09:03.183Z,20.27
2018-05-13T07:10:03.257Z,20.30
2018-05-13T07:11:03.248Z,20.20
2018-05-13T07:12:03.256Z,20.28
2018-05-13T07:13:03.256Z,20.36
2018-05-13T07:14:03.191Z,20.47
2018-05-13T07:15:03.187Z,20.64
2018-05-13T07:16:03.258Z,20.73
2018-05-13T07:17:03.185Z,20.86
2018-05-13T07:18:03.212Z,21.02
2018-05-13T07:19:03.177Z,21.05
2018-05-13T07:20:03.264Z,21.21
2018-05-13T07:21:03.204Z,21.27
2018-05-13T07:22:03.294Z,21.46
2018-05-13T07:23:03.229Z,21.53
2018-05-13T07:24:03.312Z,21.54
2018-05-13T07:25:03.307Z,21.61
2018-05-13T07:26:03.169Z,21.83
2018-05-13T07:27:03.300Z,21.80
2018-05-13T07:28:03.236Z,21.72
2018-05-13T07:29:03.244Z,21.40
2018-05-13T07:30:03.196Z,21.25
2018-05-13T07:31:03.238Z,20.90
2018-05-13T07:32:03.273Z,20.82
2018-05-13T07:33:03.237Z,20.61
2018-05-13T07:34:03.201Z,20.54
2018-05-13T07:35:03.275Z,20.52
2018-05-13T07:36:03.281Z,20.57
2018-05-13T07:37:03.232Z,20.52
2018-05-13T07:38:03.338Z,20.53
2018-05-13T07:39:03.234Z,20.70
2018-05-13T07:40:03.215Z,20.73
2018-05-13T07:41:03.279Z,20.72
2018-05-13T07:42:03.283Z,20.82
2018-05-13T07:43:03.214Z,20.91
2018-05-13T07:44:03.282Z,21.08
2018-05-13T07:45:03.253Z,21.25
2018-05-13T07:46:03.221Z,21.29
2018-05-13T07:47:03.250Z,21.34
2018-05-13T07:48:03.221Z,21.34
2018-05-13T07:49:03.221Z,21.36
2018-05-13T07:50:03.231Z,21.53
2018-05-13T07:51:03.254Z,21.68
2018-05-13T07:52:03.288Z,21.93
2018-05-13T07:53:03.221Z,22.17
2018-05-13T07:54:03.231Z,22.14
2018-05-13T07:55:03.295Z,22.24
2018-05-13T07:56:03.289Z,22.53
2018-05-13T07:57:03.297Z,22.82
2018-05-13T07:58:03.228Z,23.00
2018-05-13T07:59:03.301Z,23.16
2018-05-13T08:00:03.224Z,23.16
2018-05-13T08:01:03.225Z,23.15
2018-05-13T08:02:03.316Z,23.00
2018-05-13T08:03:03.326Z,22.94
2018-05-13T08:04:03.202Z,22.63
2018-05-13T08:05:03.221Z,22.43
2018-05-13T08:06:03.315Z,22.52
2018-05-13T08:07:03.223Z,22.52
2018-05-13T08:08:03.202Z,22.48
2018-05-13T08:09:03.221Z,22.45
2018-05-13T08:10:03.320Z,22.52
2018-05-13T08:11:03.330Z,22.57
2018-05-13T08:12:03.244Z,22.68
2018-05-13T08:13:03.243Z,23.00
2018-05-13T08:14:03.307Z,23.31
2018-05-13T08:15:03.207Z,23.64
2018-05-13T08:16:03.228Z,23.80
2018-05-13T08:17:03.188Z,23.83
2018-05-13T08:18:03.227Z,23.83
2018-05-13T08:19:03.195Z,24.14
2018-05-13T08:20:03.177Z,24.25
2018-05-13T08:21:03.295Z,24.45
2018-05-13T08:22:03.313Z,24.42
2018-05-13T08:23:03.237Z,24.05
2018-05-13T08:24:03.315Z,24.20
2018-05-13T08:25:03.272Z,24.25
2018-05-13T08:26:03.309Z,24.47
2018-05-13T08:27:03.244Z,24.37
2018-05-13T08:28:03.317Z,24.29
2018-05-13T08:29:03.325Z,24.22
2018-05-13T08:30:03.246Z,24.07
2018-05-13T08:31:03.317Z,24.27
2018-05-13T08:32:03.246Z,24.45
2018-05-13T08:33:03.247Z,24.71
2018-05-13T08:34:03.319Z,24.98
2018-05-13T08:35:03.254Z,25.26
2018-05-13T08:36:03.317Z,25.46
2018-05-13T08:37:03.246Z,25.48
2018-05-13T08:38:03.250Z,25.63
2018-05-13T08:39:03.278Z,25.82
2018-05-13T08:40:03.349Z,25.93
2018-05-13T08:41:03.253Z,25.97
2018-05-13T08:42:03.265Z,25.88
2018-05-13T08:43:03.315Z,25.92
2018-05-13T08:44:03.220Z,25.97
2018-05-13T08:45:03.227Z,26.08
2018-05-13T08:46:03.318Z,26.04
2018-05-13T08:47:03.311Z,26.10
2018-05-13T08:48:03.321Z,26.24
2018-05-13T08:49:03.228Z,26.33
2018-05-13T08:50:03.215Z,26.33
2018-05-13T08:51:03.318Z,26.52
2018-05-13T08:52:03.258Z,26.34
2018-05-13T08:53:03.312Z,26.19
2018-05-13T08:54:03.231Z,26.24
2018-05-13T08:55:03.288Z,26.10
2018-05-13T08:56:03.215Z,26.15
2018-05-13T08:57:03.310Z,26.34
2018-05-13T08:58:03.189Z,26.38
2018-05-13T08:59:03.192Z,26.55
2018-05-13T09:00:03.322Z,26.66
2018-05-13T09:01:03.319Z,26.64
2018-05-13T09:02:03.273Z,26.67
2018-05-13T09:03:03.336Z,26.81
2018-05-13T09:04:03.391Z,26.90
2018-05-13T09:05:03.234Z,26.78
2018-05-13T09:06:03.241Z,26.58
2018-05-13T09:07:03.334Z,26.32
2018-05-13T09:08:03.299Z,26.26
2018-05-13T09:09:03.337Z,26.45
2018-05-13T09:10:03.298Z,26.45
2018-05-13T09:11:03.312Z,26.36
2018-05-13T09:12:03.341Z,26.19
2018-05-13T09:13:03.370Z,25.81
2018-05-13T09:14:03.475Z,25.77
2018-05-13T09:15:03.365Z,25.85
2018-05-13T09:16:03.312Z,26.08
2018-05-13T09:17:03.266Z,26.26
2018-05-13T09:18:03.258Z,26.47
2018-05-13T09:19:03.305Z,26.67
2018-05-13T09:20:03.306Z,26.62
2018-05-13T09:21:03.270Z,26.72
2018-05-13T09:22:03.251Z,26.88
2018-05-13T09:23:03.367Z,26.95
2018-05-13T09:24:03.249Z,26.88
2018-05-13T09:25:03.344Z,27.03
2018-05-13T09:26:03.369Z,27.01
2018-05-13T09:27:03.309Z,27.01
2018-05-13T09:28:03.271Z,26.99
2018-05-13T09:29:03.388Z,26.78
2018-05-13T09:30:03.355Z,26.96
2018-05-13T09:31:03.332Z,27.23
2018-05-13T09:32:03.288Z,27.41
2018-05-13T09:33:03.342Z,27.62
2018-05-13T09:34:03.309Z,27.70
2018-05-13T09:35:03.425Z,27.92
2018-05-13T09:36:03.329Z,27.88
2018-05-13T09:37:03.372Z,27.78
2018-05-13T09:38:03.321Z,27.51
2018-05-13T09:39:03.315Z,27.12
2018-05-13T09:40:03.393Z,26.93
2018-05-13T09:41:03.318Z,26.95
2018-05-13T09:42:03.294Z,27.25
2018-05-13T09:43:03.353Z,27.55
2018-05-13T09:44:03.342Z,27.81
2018-05-13T09:45:03.295Z,27.93
2018-05-13T09:46:03.260Z,27.95
2018-05-13T09:47:03.281Z,27.95
2018-05-13T09:48:03.356Z,28.15
2018-05-13T09:49:03.286Z,28.33
2018-05-13T09:50:03.268Z,28.46
2018-05-13T09:51:03.317Z,28.47
2018-05-13T09:52:03.356Z,28.36
2018-05-13T09:53:03.229Z,27.92
2018-05-13T09:54:03.192Z,27.75
2018-05-13T09:55:03.267Z,27.86
2018-05-13T09:56:03.287Z,27.98
2018-05-13T09:57:03.178Z,28.18
2018-05-13T09:58:03.229Z,28.18
2018-05-13T09:59:03.183Z,28.31
2018-05-13T10:00:03.190Z,28.18
2018-05-13T10:01:03.235Z,28.32
2018-05-13T10:02:03.299Z,28.44
2018-05-13T10:03:03.345Z,28.46
2018-05-13T10:04:03.388Z,28.18
2018-05-13T10:05:03.275Z,28.25
2018-05-13T10:06:03.405Z,28.20
2018-05-13T10:07:03.344Z,28.14
2018-05-13T10:08:03.335Z,28.11
2018-05-13T10:09:03.346Z,28.28
2018-05-13T10:10:03.351Z,28.32
2018-05-13T10:11:03.336Z,28.50
2018-05-13T10:12:03.334Z,28.07
2018-05-13T10:13:03.279Z,28.10
2018-05-13T10:14:03.394Z,27.96
2018-05-13T10:15:03.390Z,28.25
2018-05-13T10:16:03.300Z,28.26
2018-05-13T10:17:03.413Z,28.35
2018-05-13T10:18:03.376Z,28.39
2018-05-13T10:19:03.353Z,28.60
2018-05-13T10:20:03.416Z,28.68
2018-05-13T10:21:03.358Z,28.84
2018-05-13T10:22:03.417Z,28.93
2018-05-13T10:23:03.403Z,29.09
2018-05-13T10:24:03.337Z,29.17
2018-05-13T10:25:03.355Z,29.14
2018-05-13T10:26:03.413Z,29.02
2018-05-13T10:27:03.384Z,28.90
2018-05-13T10:28:03.405Z,28.91
2018-05-13T10:29:03.419Z,28.94
2018-05-13T10:30:03.386Z,28.99
2018-05-13T10:31:03.390Z,28.91
2018-05-13T10:32:03.417Z,28.64
2018-05-13T10:33:03.288Z,28.50
2018-05-13T10:34:03.365Z,28.39
2018-05-13T10:35:03.355Z,28.57
2018-05-13T10:36:03.425Z,28.76
2018-05-13T10:37:03.328Z,28.83
2018-05-13T10:38:03.313Z,28.86
2018-05-13T10:39:03.421Z,28.65
2018-05-13T10:40:03.394Z,28.60
2018-05-13T10:41:03.468Z,28.55
2018-05-13T10:42:03.360Z,28.54
2018-05-13T10:43:03.334Z,28.42
2018-05-13T10:44:03.399Z,28.51
2018-05-13T10:45:03.329Z,28.39
2018-05-13T10:46:03.400Z,28.40
2018-05-13T10:47:03.399Z,28.55
2018-05-13T10:48:03.337Z,28.62
2018-05-13T10:49:03.402Z,28.65
2018-05-13T10:50:03.398Z,28.69
2018-05-13T10:51:03.338Z,28.57
2018-05-13T10:52:03.335Z,28.62
2018-05-13T10:53:03.303Z,28.68
2018-05-13T10:54:03.380Z,28.60
2018-05-13T10:55:03.386Z,28.55
2018-05-13T10:56:03.430Z,28.54
2018-05-13T10:57:03.403Z,28.66
2018-05-13T10:58:03.434Z,28.66
2018-05-13T10:59:03.363Z,28.93
2018-05-13T11:00:03.362Z,29.16
2018-05-13T11:01:03.332Z,29.24
2018-05-13T11:02:03.440Z,29.14
2018-05-13T11:03:03.314Z,29.21
2018-05-13T11:04:03.265Z,28.94
2018-05-13T11:05:03.355Z,28.66
2018-05-13T11:06:03.305Z,28.73
2018-05-13T11:07:03.269Z,28.71
2018-05-13T11:08:03.309Z,28.73
2018-05-13T11:09:03.269Z,28.68
2018-05-13T11:10:03.270Z,28.65
2018-05-13T11:11:03.336Z,28.75
2018-05-13T11:12:03.271Z,28.90
2018-05-13T11:13:03.346Z,29.02
2018-05-13T11:14:03.309Z,29.05
2018-05-13T11:15:03.417Z,28.98
2018-05-13T11:16:03.415Z,29.01
2018-05-13T11:17:03.352Z,28.77
2018-05-13T11:18:03.355Z,28.99
2018-05-13T11:19:03.309Z,29.25
2018-05-13T11:20:03.354Z,29.31
2018-05-13T11:21:03.357Z,29.35
2018-05-13T11:22:03.421Z,29.08
2018-05-13T11:23:03.392Z,28.80
2018-05-13T11:24:03.387Z,28.75
2018-05-13T11:25:03.376Z,28.76
2018-05-13T11:26:03.426Z,29.01
2018-05-13T11:27:03.330Z,29.12
2018-05-13T11:28:03.379Z,29.21
2018-05-13T11:29:03.459Z,29.50
2018-05-13T11:30:03.467Z,29.39
2018-05-13T11:31:03.389Z,29.17
2018-05-13T11:32:03.386Z,29.40
2018-05-13T11:33:03.375Z,29.50
2018-05-13T11:34:03.372Z,29.62
2018-05-13T11:35:03.376Z,29.81
2018-05-13T11:36:03.334Z,29.87
2018-05-13T11:37:03.324Z,29.87
2018-05-13T11:38:03.378Z,29.91
2018-05-13T11:40:03.288Z,29.86
2018-05-13T11:41:03.329Z,29.75
2018-05-13T11:42:03.386Z,29.28
2018-05-13T11:43:03.435Z,29.14
2018-05-13T11:44:03.403Z,29.14
2018-05-13T11:45:03.412Z,29.16
2018-05-13T11:46:03.362Z,29.08
2018-05-13T11:47:03.359Z,28.82
2018-05-13T11:48:03.436Z,28.44
2018-05-13T11:49:03.400Z,28.49
2018-05-13T11:50:03.457Z,28.39
2018-05-13T11:51:03.413Z,28.54
2018-05-13T11:52:03.345Z,28.77
2018-05-13T11:53:03.342Z,28.82
2018-05-13T11:54:03.476Z,29.04
2018-05-13T11:55:03.474Z,28.88
2018-05-13T11:56:03.482Z,29.05
2018-05-13T11:57:03.470Z,29.32
2018-05-13T11:58:03.481Z,29.57
2018-05-13T11:59:03.446Z,29.54
2018-05-13T12:00:03.463Z,29.75
2018-05-13T12:01:03.413Z,29.84
2018-05-13T12:02:03.489Z,29.83
2018-05-13T12:03:03.446Z,29.90
2018-05-13T12:04:03.383Z,30.02
2018-05-13T12:05:03.447Z,30.02
2018-05-13T12:06:03.383Z,29.94
2018-05-13T12:07:03.450Z,29.86
2018-05-13T12:08:03.418Z,29.47
2018-05-13T12:10:03.463Z,29.21
2018-05-13T12:11:03.384Z,29.12
2018-05-13T12:12:03.456Z,29.06
2018-05-13T12:13:03.483Z,29.04
2018-05-13T12:14:03.497Z,28.88
2018-05-13T12:15:03.373Z,28.88
2018-05-13T12:16:03.362Z,28.76
2018-05-13T12:17:03.427Z,28.75
2018-05-13T12:18:03.384Z,28.75
2018-05-13T12:19:03.434Z,28.91
2018-05-13T12:20:03.463Z,29.17
2018-05-13T12:21:03.439Z,29.28
2018-05-13T12:22:03.440Z,29.28
2018-05-13T12:23:03.483Z,29.31
2018-05-13T12:24:03.434Z,29.24
2018-05-13T12:25:03.489Z,29.27
2018-05-13T12:26:03.385Z,29.18
2018-05-13T12:27:03.480Z,29.02
2018-05-13T12:28:03.368Z,29.31
2018-05-13T12:29:03.509Z,29.51
2018-05-13T12:30:03.493Z,29.77
2018-05-13T12:31:03.431Z,30.09
2018-05-13T12:32:03.444Z,30.23
2018-05-13T12:33:03.467Z,30.30
2018-05-13T12:34:03.406Z,30.03
2018-05-13T12:35:03.463Z,29.59
2018-05-13T12:36:03.467Z,29.01
2018-05-13T12:37:03.399Z,28.69
2018-05-13T12:38:03.444Z,28.39
2018-05-13T12:39:03.471Z,28.25
2018-05-13T12:40:03.432Z,28.14
2018-05-13T12:41:03.406Z,28.03
2018-05-13T12:42:03.429Z,27.92
2018-05-13T12:43:03.451Z,28.06
2018-05-13T12:44:03.538Z,28.14
2018-05-13T12:45:03.451Z,28.22
2018-05-13T12:46:03.401Z,28.40
2018-05-13T12:47:03.492Z,28.65
2018-05-13T12:48:03.454Z,28.84
2018-05-13T12:49:03.476Z,29.04
2018-05-13T12:50:03.448Z,28.97
2018-05-13T12:51:03.419Z,29.16
2018-05-13T12:52:03.398Z,29.41
2018-05-13T12:53:03.480Z,29.59
2018-05-13T12:54:03.483Z,29.69
2018-05-13T12:55:03.442Z,29.68
2018-05-13T12:56:03.443Z,29.59
2018-05-13T12:57:03.451Z,29.80
2018-05-13T12:58:03.520Z,29.73